createdAt,value
2023-02-04T00:01:20.835Z,100442.72
2023-02-04T00:03:53.555Z,100443.88
2023-02-04T00:06:25.862Z,100438.23
2023-02-04T00:08:58.203Z,100428.55
2023-02-04T00:11:30.496Z,100426.95
2023-02-04T00:14:02.761Z,100419.95
2023-02-04T00:16:35.012Z,100412.02
2023-02-04T00:19:07.233Z,100399.88
2023-02-04T00:21:39.460Z,100393.54
2023-02-04T00:24:11.678Z,100388.73
2023-02-04T00:26:43.973Z,100383.05
2023-02-04T00:29:16.288Z,100377.40
2023-02-04T00:31:48.761Z,100375.78
2023-02-04T00:34:21.189Z,100368.93
2023-02-04T00:36:53.470Z,100366.75
2023-02-04T00:39:25.889Z,100374.73
2023-02-04T00:41:58.274Z,100368.94
2023-02-04T00:44:30.580Z,100357.66
2023-02-04T00:47:02.759Z,100359.25
2023-02-04T00:49:36.350Z,100357.67
2023-02-04T00:52:08.817Z,100352.34
2023-02-04T00:54:41.127Z,100346.11
2023-02-04T00:57:13.475Z,100343.48
2023-02-04T00:59:45.929Z,100344.88
2023-02-04T01:02:18.636Z,100335.15
2023-02-04T01:04:50.989Z,100332.66
2023-02-04T01:07:23.401Z,100327.87
2023-02-04T01:09:55.760Z,100318.06
2023-02-04T01:12:28.913Z,100317.41
2023-02-04T01:15:02.075Z,100313.48
2023-02-04T01:17:34.587Z,100309.42
2023-02-04T01:20:07.442Z,100300.46
2023-02-04T01:22:39.719Z,100294.16
2023-02-04T01:25:12.644Z,100289.93
2023-02-04T01:27:45.047Z,100287.20
2023-02-04T01:30:18.480Z,100284.42
2023-02-04T01:32:50.785Z,100279.97
2023-02-04T01:35:23.108Z,100276.54
2023-02-04T01:37:55.531Z,100272.17
2023-02-04T01:40:27.979Z,100270.73
2023-02-04T01:43:00.890Z,100265.22
2023-02-04T01:45:34.641Z,100260.73
2023-02-04T01:48:08.657Z,100258.02
2023-02-04T01:50:40.981Z,100252.38
2023-02-04T01:53:13.372Z,100253.25
2023-02-04T01:55:45.761Z,100251.27
2023-02-04T01:58:18.869Z,100251.64
2023-02-04T02:00:51.289Z,100250.96
2023-02-04T02:03:23.651Z,100247.66
2023-02-04T02:05:57.301Z,100240.63
2023-02-04T02:08:29.642Z,100239.30
2023-02-04T02:11:02.010Z,100243.58
2023-02-04T02:13:34.342Z,100246.02
2023-02-04T02:16:07.252Z,100240.47
2023-02-04T02:18:39.553Z,100246.74
2023-02-04T02:21:14.983Z,100242.28
2023-02-04T02:23:51.579Z,100243.02
2023-02-04T02:26:25.947Z,100240.34
2023-02-04T02:28:58.267Z,100241.41
2023-02-04T02:31:30.683Z,100234.05
2023-02-04T02:34:03.369Z,100235.85
2023-02-04T02:36:35.676Z,100231.20
2023-02-04T02:39:08.183Z,100230.01
2023-02-04T02:41:40.565Z,100221.96
2023-02-04T02:44:15.508Z,100217.08
2023-02-04T02:46:48.086Z,100211.83
2023-02-04T02:49:21.806Z,100207.43
2023-02-04T02:51:54.220Z,100201.38
2023-02-04T02:54:28.643Z,100195.77
2023-02-04T02:57:01.653Z,100194.32
2023-02-04T02:59:33.822Z,100188.45
2023-02-04T03:02:07.127Z,100186.98
2023-02-04T03:04:43.354Z,100184.73
2023-02-04T03:07:18.389Z,100180.30
2023-02-04T03:09:52.553Z,100172.75
2023-02-04T03:12:24.997Z,100165.48
2023-02-04T03:14:57.546Z,100162.52
2023-02-04T03:17:30.695Z,100157.27
2023-02-04T03:20:03.681Z,100153.02
2023-02-04T03:22:36.829Z,100151.74
2023-02-04T03:25:10.355Z,100147.77
2023-02-04T03:27:42.754Z,100147.52
2023-02-04T03:30:15.293Z,100141.70
2023-02-04T03:32:47.586Z,100136.59
2023-02-04T03:35:21.008Z,100132.86
2023-02-04T03:37:53.446Z,100134.02
2023-02-04T03:40:25.683Z,100131.77
2023-02-04T03:42:57.985Z,100128.77
2023-02-04T03:45:37.481Z,100123.06
2023-02-04T03:48:16.320Z,100128.86
2023-02-04T03:50:48.788Z,100128.19
2023-02-04T03:53:22.230Z,100127.96
2023-02-04T03:55:54.579Z,100129.04
2023-02-04T03:58:27.318Z,100126.68
2023-02-04T04:00:59.552Z,100126.31
2023-02-04T04:03:31.813Z,100117.00
2023-02-04T04:06:06.475Z,100115.33
2023-02-04T04:08:38.835Z,100111.13
2023-02-04T04:11:11.241Z,100107.48
2023-02-04T04:13:43.615Z,100101.36
2023-02-04T04:16:15.927Z,100104.64
2023-02-04T04:18:48.162Z,100100.28
2023-02-04T04:21:20.398Z,100097.58
2023-02-04T04:23:52.742Z,100098.85
2023-02-04T04:26:25.189Z,100099.32
2023-02-04T04:28:57.420Z,100097.95
2023-02-04T04:31:29.994Z,100093.30
2023-02-04T04:34:02.731Z,100097.63
2023-02-04T04:36:34.960Z,100096.55
2023-02-04T04:39:07.411Z,100095.01
2023-02-04T04:41:39.616Z,100091.02
2023-02-04T04:44:12.075Z,100088.95
2023-02-04T04:46:44.378Z,100093.65
2023-02-04T04:49:17.145Z,100094.14
2023-02-04T04:51:49.529Z,100088.61
2023-02-04T04:54:21.875Z,100095.02
2023-02-04T04:56:54.274Z,100093.35
2023-02-04T04:59:26.549Z,100099.98
2023-02-04T05:01:58.859Z,100098.33
2023-02-04T05:04:31.302Z,100100.25
2023-02-04T05:07:03.613Z,100100.02
2023-02-04T05:09:35.921Z,100097.77
2023-02-04T05:12:08.803Z,100094.41
2023-02-04T05:14:41.084Z,100096.67
2023-02-04T05:17:13.413Z,100094.01
2023-02-04T05:19:45.649Z,100092.52
2023-02-04T05:22:17.908Z,100091.58
2023-02-04T05:24:50.237Z,100093.15
2023-02-04T05:27:22.530Z,100098.01
2023-02-04T05:29:54.828Z,100098.45
2023-02-04T05:32:27.121Z,100098.97
2023-02-04T05:34:59.467Z,100099.34
2023-02-04T05:37:31.875Z,100098.75
2023-02-04T05:40:04.181Z,100099.94
2023-02-04T05:42:36.491Z,100102.73
2023-02-04T05:45:11.028Z,100100.41
2023-02-04T05:47:43.326Z,100098.35
2023-02-04T05:50:15.940Z,100099.30
2023-02-04T05:52:48.315Z,100096.98
2023-02-04T05:55:20.722Z,100095.52
2023-02-04T05:57:52.955Z,100094.84
2023-02-04T06:00:25.872Z,100093.21
2023-02-04T06:02:58.162Z,100090.05
2023-02-04T06:05:30.603Z,100093.19
2023-02-04T06:08:03.043Z,100092.67
2023-02-04T06:10:35.296Z,100092.59
2023-02-04T06:13:07.523Z,100097.70
2023-02-04T06:15:40.034Z,100097.04
2023-02-04T06:18:12.576Z,100095.52
2023-02-04T06:20:45.126Z,100093.98
2023-02-04T06:23:17.514Z,100093.34
2023-02-04T06:25:50.526Z,100093.74
2023-02-04T06:28:22.814Z,100100.48
2023-02-04T06:30:55.252Z,100104.07
2023-02-04T06:33:27.628Z,100096.72
2023-02-04T06:36:00.010Z,100103.73
2023-02-04T06:38:32.294Z,100103.86
2023-02-04T06:41:04.570Z,100105.85
2023-02-04T06:43:36.858Z,100109.35
2023-02-04T06:46:09.318Z,100099.84
2023-02-04T06:48:41.597Z,100105.29
2023-02-04T06:51:13.960Z,100107.49
2023-02-04T06:53:46.240Z,100112.75
2023-02-04T06:56:18.507Z,100110.03
2023-02-04T06:58:51.007Z,100114.09
2023-02-04T07:01:23.638Z,100115.25
2023-02-04T07:03:55.928Z,100113.09
2023-02-04T07:06:28.234Z,100112.52
2023-02-04T07:09:00.613Z,100120.20
2023-02-04T07:11:32.909Z,100118.17
2023-02-04T07:14:05.531Z,100123.16
2023-02-04T07:16:37.734Z,100120.15
2023-02-04T07:19:09.993Z,100117.12
2023-02-04T07:21:42.166Z,100118.88
2023-02-04T07:24:14.507Z,100119.56
2023-02-04T07:26:46.786Z,100118.39
2023-02-04T07:29:25.193Z,100124.27
2023-02-04T07:31:58.293Z,100126.05
2023-02-04T07:34:30.691Z,100125.55
2023-02-04T07:37:03.150Z,100121.90
2023-02-04T07:39:35.557Z,100119.60
2023-02-04T07:42:08.041Z,100119.01
2023-02-04T07:44:40.354Z,100113.89
2023-02-04T07:47:12.872Z,100115.13
2023-02-04T07:49:45.081Z,100116.74
2023-02-04T07:52:17.464Z,100112.45
2023-02-04T07:54:49.774Z,100110.02
2023-02-04T07:57:22.085Z,100107.09
2023-02-04T07:59:54.328Z,100109.91
2023-02-04T08:02:26.976Z,100106.05
2023-02-04T08:04:59.414Z,100108.21
2023-02-04T08:07:31.731Z,100107.34
2023-02-04T08:10:03.991Z,100106.55
2023-02-04T08:12:36.364Z,100108.46
2023-02-04T08:15:09.717Z,100109.08
2023-02-04T08:17:41.958Z,100113.65
2023-02-04T08:20:16.686Z,100114.78
2023-02-04T08:22:49.102Z,100117.07
2023-02-04T08:25:21.394Z,100121.44
2023-02-04T08:27:53.641Z,100120.14
2023-02-04T08:30:26.168Z,100121.89
2023-02-04T08:32:58.468Z,100129.13
2023-02-04T08:35:30.889Z,100129.52
2023-02-04T08:38:03.211Z,100131.52
2023-02-04T08:40:35.466Z,100139.31
2023-02-04T08:43:07.864Z,100139.13
2023-02-04T08:45:40.593Z,100148.90
2023-02-04T08:48:12.954Z,100149.39
2023-02-04T08:50:45.157Z,100153.73
2023-02-04T08:53:17.711Z,100149.31
2023-02-04T08:55:50.025Z,100153.98
2023-02-04T08:58:22.234Z,100149.73
2023-02-04T09:00:54.650Z,100148.20
2023-02-04T09:03:26.921Z,100149.94
2023-02-04T09:05:59.209Z,100154.27
2023-02-04T09:08:31.536Z,100150.75
2023-02-04T09:11:04.553Z,100153.42
2023-02-04T09:13:36.795Z,100151.20
2023-02-04T09:16:11.134Z,100151.23
2023-02-04T09:18:43.480Z,100146.05
2023-02-04T09:21:15.729Z,100145.27
2023-02-04T09:23:48.881Z,100142.83
2023-02-04T09:26:21.131Z,100138.91
2023-02-04T09:28:53.570Z,100141.46
2023-02-04T09:31:26.027Z,100139.10
2023-02-04T09:33:58.248Z,100143.46
2023-02-04T09:36:32.892Z,100143.76
2023-02-04T09:39:06.114Z,100141.05
2023-02-04T09:41:40.212Z,100136.60
2023-02-04T09:44:17.770Z,100138.91
2023-02-04T09:46:52.305Z,100135.83
2023-02-04T09:49:24.941Z,100132.66
2023-02-04T09:51:58.027Z,100127.73
2023-02-04T09:54:30.600Z,100128.13
2023-02-04T09:57:02.823Z,100133.37
2023-02-04T09:59:36.944Z,100132.77
2023-02-04T10:02:21.875Z,100127.18
2023-02-04T10:04:58.157Z,100126.81
2023-02-04T10:07:32.570Z,100137.34
2023-02-04T10:10:05.075Z,100138.38
2023-02-04T10:12:37.361Z,100142.08
2023-02-04T10:15:14.237Z,100140.14
2023-02-04T10:17:47.485Z,100139.11
2023-02-04T10:20:23.900Z,100137.11
2023-02-04T10:22:57.356Z,100140.38
2023-02-04T10:25:29.592Z,100145.10
2023-02-04T10:28:03.798Z,100142.48
2023-02-04T10:30:44.446Z,100146.24
2023-02-04T10:33:24.897Z,100149.12
2023-02-04T10:35:58.554Z,100149.84
2023-02-04T10:38:30.887Z,100150.55
2023-02-04T10:41:07.411Z,100147.45
2023-02-04T10:43:39.730Z,100147.32
2023-02-04T10:46:12.124Z,100146.51
2023-02-04T10:48:44.998Z,100137.95
2023-02-04T10:51:17.222Z,100130.54
2023-02-04T10:54:21.578Z,100125.71
2023-02-04T10:56:53.986Z,100118.71
2023-02-04T10:59:29.276Z,100120.86
2023-02-04T11:02:03.323Z,100123.96
2023-02-04T11:04:35.674Z,100125.71
2023-02-04T11:07:12.407Z,100122.69
2023-02-04T11:09:48.035Z,100126.71
2023-02-04T11:12:37.148Z,100122.77
2023-02-04T11:15:24.545Z,100119.27
2023-02-04T11:18:07.159Z,100119.89
2023-02-04T11:20:41.067Z,100120.55
2023-02-04T11:23:36.423Z,100121.98
2023-02-04T11:26:13.457Z,100118.63
2023-02-04T11:28:57.501Z,100117.63
2023-02-04T11:31:42.766Z,100118.88
2023-02-04T11:34:29.134Z,100120.58
2023-02-04T11:37:14.537Z,100117.98
2023-02-04T11:39:48.271Z,100126.27
2023-02-04T11:42:25.534Z,100126.13
2023-02-04T11:45:02.015Z,100126.39
2023-02-04T11:47:39.653Z,100130.96
2023-02-04T11:50:21.407Z,100131.39
2023-02-04T11:52:55.310Z,100135.94
2023-02-04T11:55:28.082Z,100139.89
2023-02-04T11:58:00.806Z,100139.95
2023-02-04T12:00:34.737Z,100141.55
2023-02-04T12:03:22.012Z,100130.13
2023-02-04T12:05:56.206Z,100141.64
2023-02-04T12:08:34.959Z,100140.55
2023-02-04T12:11:12.373Z,100141.72
2023-02-04T12:13:52.679Z,100138.87
2023-02-04T12:16:25.593Z,100145.83
2023-02-04T12:18:58.001Z,100147.20
2023-02-04T12:21:30.238Z,100147.16
2023-02-04T12:24:02.582Z,100153.27
2023-02-04T12:26:34.870Z,100152.34
2023-02-04T12:29:07.326Z,100157.02
2023-02-04T12:31:39.845Z,100163.41
2023-02-04T12:34:12.311Z,100162.23
2023-02-04T12:36:44.859Z,100165.52
2023-02-04T12:39:17.230Z,100172.43
2023-02-04T12:41:49.571Z,100173.10
2023-02-04T12:44:21.823Z,100181.25
2023-02-04T12:46:55.387Z,100182.16
2023-02-04T12:49:27.760Z,100189.89
2023-02-04T12:52:02.353Z,100191.91
2023-02-04T12:54:34.638Z,100199.48
2023-02-04T12:57:06.969Z,100205.65
2023-02-04T12:59:39.272Z,100213.33
2023-02-04T13:02:12.525Z,100213.48
2023-02-04T13:04:44.892Z,100214.97
2023-02-04T13:07:17.208Z,100219.11
2023-02-04T13:09:49.531Z,100219.71
2023-02-04T13:12:21.846Z,100227.48
2023-02-04T13:14:54.086Z,100226.41
2023-02-04T13:17:26.423Z,100230.68
2023-02-04T13:19:58.851Z,100237.56
2023-02-04T13:22:31.114Z,100240.41
2023-02-04T13:25:04.275Z,100242.79
2023-02-04T13:27:36.932Z,100244.79
2023-02-04T13:30:13.051Z,100260.35
2023-02-04T13:32:45.482Z,100261.61
2023-02-04T13:35:19.546Z,100267.41
2023-02-04T13:37:51.819Z,100270.08
2023-02-04T13:40:24.294Z,100272.06
2023-02-04T13:42:56.518Z,100274.96
2023-02-04T13:45:29.003Z,100279.98
2023-02-04T13:48:01.212Z,100287.05
2023-02-04T13:50:33.876Z,100289.61
2023-02-04T13:53:06.524Z,100296.30
2023-02-04T13:55:38.879Z,100300.19
2023-02-04T13:58:11.156Z,100307.31
2023-02-04T14:00:43.369Z,100312.05
2023-02-04T14:03:15.788Z,100317.46
2023-02-04T14:05:48.029Z,100320.77
2023-02-04T14:08:20.425Z,100326.33
2023-02-04T14:10:52.751Z,100334.33
2023-02-04T14:13:25.092Z,100340.03
2023-02-04T14:15:57.297Z,100346.73
2023-02-04T14:18:29.605Z,100347.33
2023-02-04T14:21:02.023Z,100354.67
2023-02-04T14:23:34.322Z,100359.63
2023-02-04T14:26:06.818Z,100359.84
2023-02-04T14:28:39.011Z,100364.88
2023-02-04T14:31:11.434Z,100369.58
2023-02-04T14:33:43.705Z,100373.31
2023-02-04T14:36:16.154Z,100368.24
2023-02-04T14:38:49.011Z,100376.80
2023-02-04T14:41:21.645Z,100373.95
2023-02-04T14:43:54.937Z,100372.77
2023-02-04T14:46:27.407Z,100377.71
2023-02-04T14:48:59.625Z,100376.73
2023-02-04T14:51:31.964Z,100381.09
2023-02-04T14:54:04.328Z,100382.42
2023-02-04T14:56:36.724Z,100394.45
2023-02-04T14:59:09.165Z,100396.12
2023-02-04T15:01:42.469Z,100396.98
2023-02-04T15:04:15.005Z,100402.79
2023-02-04T15:06:47.793Z,100402.16
2023-02-04T15:09:20.007Z,100406.48
2023-02-04T15:11:52.510Z,100404.77
2023-02-04T15:14:24.787Z,100408.74
2023-02-04T15:16:57.012Z,100417.12
2023-02-04T15:19:29.390Z,100420.19
2023-02-04T15:22:01.813Z,100426.67
2023-02-04T15:24:34.082Z,100436.38
2023-02-04T15:27:07.088Z,100439.93
2023-02-04T15:29:39.447Z,100446.85
2023-02-04T15:32:11.698Z,100453.02
2023-02-04T15:34:44.003Z,100458.95
2023-02-04T15:37:16.209Z,100461.59
2023-02-04T15:39:48.525Z,100462.15
2023-02-04T15:42:20.855Z,100466.98
2023-02-04T15:44:53.163Z,100465.77
2023-02-04T15:47:25.439Z,100470.38
2023-02-04T15:49:57.648Z,100470.76
2023-02-04T15:52:30.123Z,100475.26
2023-02-04T15:55:02.458Z,100479.95
2023-02-04T15:57:34.855Z,100480.27
2023-02-04T16:00:08.992Z,100490.98
2023-02-04T16:02:41.244Z,100496.45
2023-02-04T16:05:13.512Z,100504.41
2023-02-04T16:07:45.703Z,100509.41
2023-02-04T16:10:18.673Z,100518.30
2023-02-04T16:12:51.542Z,100524.03
2023-02-04T16:15:24.054Z,100529.29
2023-02-04T16:17:57.213Z,100527.84
2023-02-04T16:20:29.582Z,100530.77
2023-02-04T16:23:03.086Z,100537.00
2023-02-04T16:25:35.616Z,100545.73
2023-02-04T16:28:08.198Z,100554.20
2023-02-04T16:30:40.545Z,100558.42
2023-02-04T16:33:13.106Z,100557.44
2023-02-04T16:38:43.748Z,100570.80
2023-02-04T16:41:16.016Z,100567.27
2023-02-04T16:43:48.429Z,100574.31
2023-02-04T16:46:21.286Z,100572.90
2023-02-04T16:48:53.620Z,100577.66
2023-02-04T16:51:26.187Z,100582.57
2023-02-04T16:53:58.497Z,100586.90
2023-02-04T16:56:35.764Z,100593.23
2023-02-04T16:59:08.366Z,100602.19
2023-02-04T17:01:41.077Z,100605.38
2023-02-04T17:04:13.704Z,100606.09
2023-02-04T17:06:46.090Z,100608.09
2023-02-04T17:09:18.562Z,100611.66
2023-02-04T17:11:51.237Z,100614.85
2023-02-04T17:14:24.975Z,100615.35
2023-02-04T17:16:57.254Z,100614.00
2023-02-04T17:19:29.990Z,100614.83
2023-02-04T17:22:02.361Z,100612.94
2023-02-04T17:24:36.394Z,100622.13
2023-02-04T17:27:08.792Z,100620.80
2023-02-04T17:29:41.047Z,100626.91
2023-02-04T17:32:13.518Z,100630.17
2023-02-04T17:34:45.942Z,100626.47
2023-02-04T17:37:18.253Z,100624.64
2023-02-04T17:39:50.539Z,100624.27
2023-02-04T17:42:22.893Z,100628.75
2023-02-04T17:44:55.454Z,100630.05
2023-02-04T17:47:27.686Z,100630.16
2023-02-04T17:50:00.355Z,100629.59
2023-02-04T17:52:34.272Z,100633.19
2023-02-04T17:55:16.916Z,100636.93
2023-02-04T17:57:49.230Z,100640.69
2023-02-04T18:00:25.282Z,100644.98
2023-02-04T18:02:58.344Z,100645.35
2023-02-04T18:05:32.233Z,100642.89
2023-02-04T18:08:14.723Z,100647.20
2023-02-04T18:10:48.568Z,100652.30
2023-02-04T18:13:23.420Z,100656.77
2023-02-04T18:15:57.657Z,100658.32
2023-02-04T18:18:32.964Z,100663.88
2023-02-04T18:21:16.677Z,100665.66
2023-02-04T18:23:49.894Z,100668.13
2023-02-04T18:26:25.855Z,100675.94
2023-02-04T18:29:00.158Z,100675.70
2023-02-04T18:31:37.805Z,100677.70
2023-02-04T18:34:21.275Z,100685.06
2023-02-04T18:36:55.198Z,100686.74
2023-02-04T18:39:34.206Z,100690.22
2023-02-04T18:42:16.368Z,100689.50
2023-02-04T18:44:49.005Z,100693.09
2023-02-04T18:47:32.472Z,100699.13
2023-02-04T18:50:19.189Z,100700.69
2023-02-04T18:52:51.819Z,100704.87
2023-02-04T18:55:30.710Z,100709.59
2023-02-04T18:58:25.951Z,100709.87
2023-02-04T19:01:00.177Z,100715.02
2023-02-04T19:03:37.610Z,100715.88
2023-02-04T19:06:29.344Z,100721.23
2023-02-04T19:09:15.776Z,100721.38
2023-02-04T19:11:51.216Z,100727.53
2023-02-04T19:14:31.938Z,100731.77
2023-02-04T19:17:22.674Z,100732.55
2023-02-04T19:19:59.597Z,100738.66
2023-02-04T19:22:46.313Z,100738.69
2023-02-04T19:25:29.879Z,100742.02
2023-02-04T19:28:04.081Z,100738.00
2023-02-04T19:30:48.148Z,100742.66
2023-02-04T19:33:23.211Z,100746.74
2023-02-04T19:35:55.576Z,100748.79
2023-02-04T19:38:39.014Z,100756.23
2023-02-04T19:41:35.421Z,100762.66
2023-02-04T19:44:41.306Z,100767.36
2023-02-04T19:47:26.706Z,100773.64
2023-02-04T19:50:21.398Z,100785.93
2023-02-04T19:52:56.588Z,100791.39
2023-02-04T19:55:33.714Z,100796.54
2023-02-04T19:58:17.661Z,100796.09
2023-02-04T20:01:00.859Z,100803.77
2023-02-04T20:03:38.606Z,100808.52
2023-02-04T20:06:31.079Z,100817.55
2023-02-04T20:09:05.670Z,100827.61
2023-02-04T20:11:54.015Z,100829.86
2023-02-04T20:14:30.614Z,100835.61
2023-02-04T20:17:05.879Z,100831.73
2023-02-04T20:19:41.248Z,100841.09
2023-02-04T20:22:36.535Z,100846.17
2023-02-04T20:25:38.611Z,100846.27
2023-02-04T20:28:44.898Z,100847.82
2023-02-04T20:31:28.866Z,100850.73
2023-02-04T20:34:02.082Z,100855.36
2023-02-04T20:36:44.651Z,100853.73
2023-02-04T20:39:40.148Z,100855.10
2023-02-04T20:42:30.865Z,100862.85
2023-02-04T20:45:34.143Z,100858.91
2023-02-04T20:48:28.865Z,100869.38
2023-02-04T20:51:04.058Z,100870.43
2023-02-04T20:53:42.090Z,100869.63
2023-02-04T20:56:27.687Z,100878.88
2023-02-04T20:59:21.521Z,100880.94
2023-02-04T21:01:53.943Z,100885.21
2023-02-04T21:04:32.381Z,100883.89
2023-02-04T21:07:14.452Z,100885.86
2023-02-04T21:09:48.262Z,100880.23
2023-02-04T21:12:21.790Z,100882.14
2023-02-04T21:14:54.021Z,100882.77
2023-02-04T21:17:26.421Z,100891.36
2023-02-04T21:19:58.718Z,100897.39
2023-02-04T21:22:30.968Z,100895.46
2023-02-04T21:25:03.312Z,100894.72
2023-02-04T21:27:35.571Z,100900.97
2023-02-04T21:30:09.877Z,100905.06
2023-02-04T21:32:42.234Z,100906.07
2023-02-04T21:35:18.736Z,100913.63
2023-02-04T21:37:51.162Z,100922.99
2023-02-04T21:40:24.318Z,100925.98
2023-02-04T21:42:57.144Z,100934.14
2023-02-04T21:45:29.640Z,100937.91
2023-02-04T21:48:01.925Z,100944.62
2023-02-04T21:50:35.269Z,100948.52
2023-02-04T21:53:08.188Z,100949.77
2023-02-04T21:55:40.873Z,100954.38
2023-02-04T21:58:13.171Z,100952.59
2023-02-04T22:00:45.511Z,100959.40
2023-02-04T22:03:17.944Z,100964.81
2023-02-04T22:05:50.468Z,100967.67
2023-02-04T22:08:22.771Z,100971.85
2023-02-04T22:10:54.990Z,100972.56
2023-02-04T22:13:27.332Z,100968.38
2023-02-04T22:15:59.706Z,100963.54
2023-02-04T22:18:32.065Z,100964.27
2023-02-04T22:21:04.478Z,100967.42
2023-02-04T22:23:36.782Z,100972.17
2023-02-04T22:26:09.155Z,100970.45
2023-02-04T22:28:41.444Z,100973.89
2023-02-04T22:31:14.982Z,100971.30
2023-02-04T22:33:47.276Z,100979.28
2023-02-04T22:36:19.445Z,100980.54
2023-02-04T22:38:51.809Z,100983.30
2023-02-04T22:41:24.109Z,100980.73
2023-02-04T22:43:56.455Z,100987.64
2023-02-04T22:46:29.836Z,100992.53
2023-02-04T22:49:02.218Z,100996.59
2023-02-04T22:51:35.019Z,100984.87
2023-02-04T22:54:07.518Z,100995.16
2023-02-04T22:56:39.789Z,100999.73
2023-02-04T22:59:12.172Z,101000.98
2023-02-04T23:01:44.519Z,101005.31
2023-02-04T23:04:16.767Z,101009.50
2023-02-04T23:06:49.286Z,101009.75
2023-02-04T23:09:22.356Z,101012.40
2023-02-04T23:11:56.240Z,101013.19
2023-02-04T23:14:28.602Z,101014.61
2023-02-04T23:17:00.853Z,101014.61
2023-02-04T23:19:33.266Z,101013.23
2023-02-04T23:22:05.873Z,101017.66
2023-02-04T23:24:38.316Z,101017.89
2023-02-04T23:27:12.127Z,101027.96
2023-02-04T23:29:44.447Z,101030.41
2023-02-04T23:32:17.162Z,101028.56
2023-02-04T23:34:49.342Z,101034.62
2023-02-04T23:37:21.753Z,101040.53
2023-02-04T23:39:53.934Z,101031.14
2023-02-04T23:42:26.371Z,101037.24
2023-02-04T23:44:58.807Z,101046.27
2023-02-04T23:47:31.113Z,101053.60
2023-02-04T23:50:03.331Z,101056.92
2023-02-04T23:52:35.672Z,101059.31
2023-02-04T23:55:09.504Z,101061.64
2023-02-04T23:57:41.802Z,101064.81
